Time;durP1;ratioP1;P1;durP2;ratioP2;P2;SDS_P1;SDS_P2;PMS_P1;PMS_P2;Temp;Humidity;BMP_temperature;BMP_pressure;BME280_temperature;BME280_humidity;BME280_pressure;Samples;Min_cycle;Max_cycle;Signal;HPM_P1;HPM_P2
2021/06/21 00:00:39;;;;;;;4.47;3.00;;;19.10;80.20;;;;;;5072336;28;20383;-78
2021/06/21 00:03:04;;;;;;;6.15;3.50;;;19.00;80.60;;;;;;5072091;28;20111;-78
2021/06/21 00:05:30;;;;;;;4.90;3.30;;;18.90;80.70;;;;;;5073598;28;20032;-78
2021/06/21 00:07:56;;;;;;;4.03;3.63;;;18.80;80.80;;;;;;5072083;28;20502;-78
2021/06/21 00:10:21;;;;;;;4.53;3.10;;;18.70;81.60;;;;;;5072085;28;20024;-78
2021/06/21 00:12:48;;;;;;;5.35;3.40;;;18.70;81.10;;;;;;5072176;28;20416;-78
2021/06/21 00:15:17;;;;;;;5.78;3.65;;;18.70;81.10;;;;;;5072160;28;20495;-78
2021/06/21 00:17:42;;;;;;;5.47;3.30;;;18.60;81.20;;;;;;5071979;28;20033;-78
2021/06/21 00:20:08;;;;;;;3.60;3.30;;;18.50;81.30;;;;;;5072111;28;20039;-78
2021/06/21 00:22:34;;;;;;;4.13;3.50;;;18.50;81.50;;;;;;5071860;28;20032;-78
2021/06/21 00:25:00;;;;;;;5.70;3.80;;;18.40;81.40;;;;;;5073333;28;20125;-78
2021/06/21 00:27:25;;;;;;;6.03;4.20;;;18.40;81.40;;;;;;5072071;28;20017;-78
2021/06/21 00:29:52;;;;;;;5.95;3.63;;;18.30;81.40;;;;;;5071616;28;20507;-78
2021/06/21 00:32:18;;;;;;;5.53;3.70;;;18.30;81.40;;;;;;5073383;28;20024;-78
2021/06/21 00:34:45;;;;;;;4.60;3.80;;;18.30;81.40;;;;;;5071742;28;20557;-78
2021/06/21 00:37:10;;;;;;;6.57;3.95;;;18.20;81.20;;;;;;5071553;28;20037;-78
2021/06/21 00:39:36;;;;;;;4.70;3.50;;;18.30;81.30;;;;;;5071612;28;20150;-78
2021/06/21 00:42:03;;;;;;;4.75;3.65;;;18.30;81.10;;;;;;5071499;28;20025;-78
2021/06/21 00:44:28;;;;;;;4.47;3.72;;;18.30;81.00;;;;;;5071501;28;20021;-78
2021/06/21 00:46:54;;;;;;;4.50;4.10;;;18.30;80.90;;;;;;5071413;28;20503;-78
2021/06/21 00:49:20;;;;;;;5.07;4.20;;;18.30;80.80;;;;;;5071231;28;20138;-78
2021/06/21 00:51:45;;;;;;;4.72;3.83;;;18.30;80.80;;;;;;5071347;28;20028;-78
2021/06/21 00:54:11;;;;;;;6.18;4.18;;;18.30;80.80;;;;;;5071388;28;20024;-78
2021/06/21 00:56:37;;;;;;;5.10;4.00;;;18.20;80.80;;;;;;5071372;28;20028;-79
2021/06/21 01:02:28;;;;;;;5.47;4.78;;;18.10;81.40;;;;;;5072921;28;20206;-78
2021/06/21 01:04:55;;;;;;;5.72;5.07;;;17.90;81.80;;;;;;5071571;28;20052;-78
2021/06/21 01:07:21;;;;;;;6.53;5.38;;;17.70;82.40;;;;;;5072607;28;20036;-78
2021/06/21 01:09:49;;;;;;;7.45;5.65;;;17.60;82.80;;;;;;5071099;28;20040;-78
2021/06/21 01:12:30;;;;;;;6.03;5.00;;;17.40;83.20;;;;;;5071266;28;20373;-78
2021/06/21 01:15:06;;;;;;;5.85;5.25;;;17.30;83.60;;;;;;5072496;28;20032;-78
2021/06/21 01:17:47;;;;;;;7.15;5.25;;;17.10;84.00;;;;;;5071124;28;20032;-78
2021/06/21 01:20:50;;;;;;;6.32;5.65;;;17.10;84.10;;;;;;5072311;28;20036;-78
2021/06/21 01:23:37;;;;;;;6.30;5.45;;;17.00;84.50;;;;;;5070883;28;20032;-78
2021/06/21 01:26:18;;;;;;;7.70;5.55;;;16.90;84.50;;;;;;5071003;28;20031;-78
2021/06/21 01:29:03;;;;;;;6.95;5.85;;;16.80;84.80;;;;;;5071052;28;20479;-78
2021/06/21 01:32:15;;;;;;;7.45;5.78;;;16.80;85.00;;;;;;5071033;28;20503;-77
2021/06/21 01:34:47;;;;;;;5.45;4.90;;;16.70;85.30;;;;;;4978654;28;20473;-77
2021/06/21 01:37:14;;;;;;;5.40;4.85;;;16.60;85.20;;;;;;4978667;28;20030;-77
2021/06/21 01:39:42;;;;;;;6.53;5.07;;;16.70;85.20;;;;;;5032825;28;20036;-77
2021/06/21 01:42:12;;;;;;;7.75;5.38;;;16.60;85.10;;;;;;5075025;28;20396;-77
2021/06/21 01:44:43;;;;;;;5.97;4.97;;;16.70;85.40;;;;;;5074948;28;20028;-77
2021/06/21 01:47:11;;;;;;;5.38;4.85;;;16.60;85.30;;;;;;5076247;28;20032;-77
2021/06/21 01:49:40;;;;;;;4.97;4.53;;;16.60;85.50;;;;;;5074510;28;20045;-77
2021/06/21 01:52:10;;;;;;;5.65;4.30;;;16.60;85.50;;;;;;5074892;28;20025;-77
2021/06/21 01:54:41;;;;;;;5.45;4.10;;;16.50;85.40;;;;;;5074678;28;20122;-77
2021/06/21 01:57:07;;;;;;;4.90;4.40;;;16.60;85.70;;;;;;5076359;28;20496;-78
2021/06/21 01:59:34;;;;;;;5.07;4.20;;;16.50;85.60;;;;;;5075934;28;20527;-78
2021/06/21 02:02:01;;;;;;;5.55;4.60;;;16.50;86.00;;;;;;5074536;28;20115;-77
2021/06/21 02:04:36;;;;;;;4.70;4.20;;;16.40;86.00;;;;;;5074325;28;20503;-77
2021/06/21 02:07:02;;;;;;;4.97;4.38;;;16.40;86.10;;;;;;5074347;28;20437;-77
2021/06/21 02:09:29;;;;;;;4.45;3.78;;;16.40;86.10;;;;;;5074225;28;20021;-78
2021/06/21 02:11:56;;;;;;;5.28;4.20;;;16.30;86.10;;;;;;5074243;28;20024;-78
2021/06/21 02:14:25;;;;;;;5.95;3.90;;;16.30;86.20;;;;;;5074346;28;20123;-78
2021/06/21 02:16:52;;;;;;;3.67;3.00;;;16.30;86.40;;;;;;5075546;28;20025;-77
2021/06/21 02:19:20;;;;;;;3.85;3.30;;;16.30;86.40;;;;;;5074205;28;20051;-78
2021/06/21 02:21:48;;;;;;;3.50;3.20;;;16.20;86.30;;;;;;5074152;28;20029;-77
2021/06/21 02:24:14;;;;;;;3.90;3.47;;;16.20;86.50;;;;;;5074193;28;20463;-77
2021/06/21 02:26:43;;;;;;;4.40;3.10;;;16.20;86.50;;;;;;5074133;28;20495;-77
2021/06/21 02:29:09;;;;;;;3.15;2.85;;;16.10;86.60;;;;;;5074021;28;20029;-77
2021/06/21 02:31:34;;;;;;;4.07;3.10;;;16.10;86.70;;;;;;5073878;28;20024;-76
2021/06/21 02:34:01;;;;;;;3.33;3.00;;;16.00;86.80;;;;;;5075251;28;20025;-76
2021/06/21 02:36:26;;;;;;;3.45;3.03;;;16.00;86.90;;;;;;5073815;28;20483;-77
2021/06/21 02:38:54;;;;;;;3.90;3.17;;;15.90;87.10;;;;;;5073878;28;20055;-77
2021/06/21 02:41:20;;;;;;;3.30;3.00;;;15.90;87.30;;;;;;5073731;28;20027;-77
2021/06/21 02:43:46;;;;;;;4.82;3.00;;;15.80;87.40;;;;;;5073157;28;20027;-77
2021/06/21 02:46:12;;;;;;;3.17;2.88;;;15.80;87.70;;;;;;5073562;28;20028;-77
2021/06/21 02:48:39;;;;;;;3.70;3.28;;;15.80;87.70;;;;;;5074765;28;20041;-77
2021/06/21 02:51:08;;;;;;;4.07;2.80;;;15.70;87.80;;;;;;5075023;28;20099;-77
2021/06/21 02:54:13;;;;;;;3.65;3.17;;;15.60;88.00;;;;;;5073948;28;20444;-77
2021/06/21 02:56:55;;;;;;;3.63;2.97;;;15.60;88.20;;;;;;4977178;28;20073;-77
2021/06/21 02:59:21;;;;;;;3.75;3.00;;;15.50;88.30;;;;;;5069559;28;20048;-78
2021/06/21 03:01:51;;;;;;;2.53;2.33;;;15.40;88.30;;;;;;5074816;28;20086;-77
2021/06/21 03:04:20;;;;;;;3.13;2.60;;;15.30;88.40;;;;;;5073523;28;20024;-77
2021/06/21 03:06:46;;;;;;;4.18;2.30;;;15.20;88.50;;;;;;5073404;28;20025;-77
2021/06/21 03:09:14;;;;;;;3.05;2.15;;;15.20;89.10;;;;;;5074646;28;20461;-77
2021/06/21 03:11:42;;;;;;;2.58;2.25;;;15.20;88.50;;;;;;5073696;28;20048;-77
2021/06/21 03:14:08;;;;;;;5.53;2.38;;;15.20;88.80;;;;;;5073411;28;20016;-76
2021/06/21 03:16:35;;;;;;;3.45;2.10;;;15.10;88.80;;;;;;5073254;28;20059;-76
2021/06/21 03:19:01;;;;;;;4.00;2.70;;;15.10;89.00;;;;;;5073236;28;20496;-76
2021/06/21 03:21:27;;;;;;;2.75;2.50;;;15.00;89.10;;;;;;5073063;28;20488;-76
2021/06/21 03:23:55;;;;;;;2.30;2.10;;;15.00;89.30;;;;;;5072998;28;20043;-76
2021/06/21 03:26:29;;;;;;;2.60;2.38;;;14.90;89.30;;;;;;5073176;28;20040;-76
2021/06/21 03:28:56;;;;;;;2.30;2.15;;;14.90;89.30;;;;;;5073003;28;20039;-76
2021/06/21 03:31:22;;;;;;;3.75;1.95;;;14.90;89.50;;;;;;5072978;28;20501;-76
2021/06/21 03:33:49;;;;;;;2.53;2.25;;;14.90;89.40;;;;;;5072978;28;20044;-76
2021/06/21 03:36:14;;;;;;;2.40;2.20;;;14.90;89.70;;;;;;5072854;28;20092;-76
2021/06/21 03:38:40;;;;;;;5.88;2.50;;;14.80;89.60;;;;;;5072779;28;20024;-76
2021/06/21 03:41:06;;;;;;;2.25;2.05;;;14.80;89.60;;;;;;5074147;28;20388;-76
2021/06/21 03:43:33;;;;;;;4.47;2.35;;;14.80;89.70;;;;;;5072744;28;20056;-76
2021/06/21 03:46:02;;;;;;;3.92;2.20;;;14.80;90.00;;;;;;5069837;28;20052;-76
2021/06/21 03:48:28;;;;;;;2.40;2.20;;;14.70;90.00;;;;;;5072464;28;20044;-76
2021/06/21 03:50:55;;;;;;;2.15;1.80;;;14.70;90.00;;;;;;5072307;28;20028;-76
2021/06/21 03:53:23;;;;;;;10.27;3.30;;;14.70;90.10;;;;;;5074083;28;20035;-76
2021/06/21 03:55:49;;;;;;;3.80;2.45;;;14.70;90.20;;;;;;5072579;28;20017;-76
2021/06/21 03:58:16;;;;;;;2.72;2.22;;;14.60;90.20;;;;;;5072323;28;20025;-76
2021/06/21 04:00:42;;;;;;;2.35;2.15;;;14.60;90.30;;;;;;5072314;28;20040;-76
2021/06/21 04:03:09;;;;;;;2.60;2.40;;;14.60;90.30;;;;;;5072429;28;20035;-76
2021/06/21 04:05:37;;;;;;;2.17;1.98;;;14.50;90.30;;;;;;5072255;28;20039;-77
2021/06/21 04:08:05;;;;;;;2.28;1.85;;;14.50;90.40;;;;;;5072336;28;20047;-76
2021/06/21 04:10:31;;;;;;;2.85;1.90;;;14.50;90.30;;;;;;5072076;28;20499;-77
2021/06/21 04:12:57;;;;;;;2.75;2.03;;;14.50;90.40;;;;;;5072140;28;20029;-76
2021/06/21 04:15:29;;;;;;;2.10;1.90;;;14.50;90.60;;;;;;5072112;28;20024;-77
2021/06/21 04:17:59;;;;;;;1.77;1.67;;;14.50;90.50;;;;;;5073706;28;20082;-76
2021/06/21 04:20:25;;;;;;;1.67;1.58;;;14.50;90.50;;;;;;5071919;28;20031;-76
2021/06/21 04:22:51;;;;;;;1.70;1.60;;;14.50;90.50;;;;;;5073395;28;20357;-76
2021/06/21 04:25:18;;;;;;;2.25;2.00;;;14.40;90.50;;;;;;5073243;28;20027;-76
2021/06/21 04:27:44;;;;;;;2.00;1.85;;;14.40;90.60;;;;;;5071885;28;20029;-77
2021/06/21 04:30:12;;;;;;;2.45;1.88;;;14.40;90.60;;;;;;5073097;28;20032;-77
2021/06/21 04:32:38;;;;;;;1.83;1.70;;;14.40;90.70;;;;;;5073168;28;20475;-77
2021/06/21 04:35:07;;;;;;;3.00;1.63;;;14.40;90.80;;;;;;5071787;28;20020;-76
2021/06/21 04:37:33;;;;;;;1.67;1.58;;;14.30;90.70;;;;;;5071635;28;20025;-76
2021/06/21 04:39:59;;;;;;;1.70;1.50;;;14.30;90.80;;;;;;5071822;28;20036;-76
2021/06/21 04:42:25;;;;;;;1.70;1.60;;;14.30;90.80;;;;;;5071649;28;20024;-76
2021/06/21 04:44:50;;;;;;;1.70;1.60;;;14.30;90.80;;;;;;5072970;28;20032;-76
2021/06/21 04:47:16;;;;;;;1.73;1.63;;;14.30;90.80;;;;;;5072970;28;20039;-76
2021/06/21 04:49:42;;;;;;;1.58;1.48;;;14.40;90.80;;;;;;5072504;28;20055;-76
2021/06/21 04:52:10;;;;;;;1.52;1.42;;;14.40;90.90;;;;;;5071544;28;20019;-76
2021/06/21 04:54:36;;;;;;;2.28;1.52;;;14.30;90.90;;;;;;5071543;28;20554;-76
2021/06/21 04:57:01;;;;;;;1.63;1.52;;;14.40;90.90;;;;;;5071399;28;20056;-76
2021/06/21 04:59:27;;;;;;;1.77;1.65;;;14.40;90.90;;;;;;5071530;28;20020;-77
2021/06/21 05:01:53;;;;;;;1.52;1.42;;;14.40;90.90;;;;;;5072729;28;20494;-77
2021/06/21 05:04:18;;;;;;;1.73;1.40;;;14.30;90.90;;;;;;5071223;28;20322;-77
2021/06/21 05:06:44;;;;;;;1.67;1.58;;;14.30;91.00;;;;;;5072106;28;20021;-77
2021/06/21 05:09:11;;;;;;;1.40;1.30;;;14.30;90.90;;;;;;5072556;28;20135;-77
2021/06/21 05:11:37;;;;;;;1.35;1.25;;;14.30;90.90;;;;;;5071438;28;20476;-77
2021/06/21 05:14:03;;;;;;;1.30;1.20;;;14.30;90.90;;;;;;5071335;28;20028;-77
2021/06/21 05:16:29;;;;;;;2.45;1.42;;;14.30;90.90;;;;;;5071091;28;20032;-77
2021/06/21 05:18:55;;;;;;;1.15;1.13;;;14.40;91.00;;;;;;5071192;28;20027;-77
2021/06/21 05:21:20;;;;;;;1.33;1.23;;;14.40;91.00;;;;;;5071179;28;20024;-76
2021/06/21 05:23:46;;;;;;;1.17;1.17;;;14.30;90.90;;;;;;5071091;28;20017;-76
2021/06/21 05:26:12;;;;;;;1.42;1.33;;;14.40;90.90;;;;;;5072588;28;20486;-77
2021/06/21 05:28:39;;;;;;;1.30;1.20;;;14.40;91.00;;;;;;5071026;28;20017;-76
2021/06/21 05:31:04;;;;;;;1.30;1.20;;;14.40;91.00;;;;;;5072342;28;20038;-77
2021/06/21 05:33:30;;;;;;;0.93;0.93;;;14.40;90.90;;;;;;5071322;28;20032;-77
2021/06/21 05:35:55;;;;;;;1.10;1.10;;;14.40;91.00;;;;;;5071106;28;20445;-77
2021/06/21 05:38:21;;;;;;;1.10;1.00;;;14.40;90.90;;;;;;5071078;28;20017;-77
2021/06/21 05:40:47;;;;;;;1.13;1.10;;;14.40;90.90;;;;;;5071137;28;20621;-77
2021/06/21 05:43:12;;;;;;;0.93;0.90;;;14.40;90.90;;;;;;5072429;28;20059;-77
2021/06/21 05:45:38;;;;;;;1.10;0.95;;;14.40;90.90;;;;;;5070829;28;20115;-78
2021/06/21 05:48:05;;;;;;;1.90;1.00;;;14.40;90.80;;;;;;5070786;28;20025;-78
2021/06/21 05:50:31;;;;;;;1.00;0.93;;;14.40;90.90;;;;;;5072165;28;20434;-77
2021/06/21 05:52:56;;;;;;;1.10;1.00;;;14.40;90.80;;;;;;5072223;28;20024;-77
2021/06/21 05:55:23;;;;;;;1.00;1.00;;;14.40;90.90;;;;;;5070826;28;20115;-77
2021/06/21 05:57:53;;;;;;;0.90;0.90;;;14.30;90.80;;;;;;5070961;28;20016;-77
2021/06/21 06:00:20;;;;;;;1.30;1.20;;;14.30;90.90;;;;;;5072148;28;20031;-78
2021/06/21 06:02:46;;;;;;;1.40;0.98;;;14.30;91.00;;;;;;5071988;28;20063;-78
2021/06/21 06:05:16;;;;;;;1.25;1.20;;;14.30;91.00;;;;;;5070727;28;20123;-78
2021/06/21 06:07:42;;;;;;;1.40;1.20;;;14.30;91.00;;;;;;5070704;28;20103;-80
2021/06/21 06:10:08;;;;;;;1.13;1.10;;;14.30;91.00;;;;;;5070822;28;20175;-78
2021/06/21 06:12:34;;;;;;;0.80;0.80;;;14.30;91.00;;;;;;5071788;28;20044;-76
2021/06/21 06:18:22;;;;;;;0.90;0.85;;;14.30;91.00;;;;;;5073455;28;20019;-83
2021/06/21 06:20:48;;;;;;;1.17;0.80;;;14.30;90.90;;;;;;5074527;28;20119;-78
2021/06/21 06:23:15;;;;;;;0.85;0.85;;;14.30;91.00;;;;;;5076343;28;20456;-77
2021/06/21 06:25:40;;;;;;;1.10;0.90;;;14.30;91.00;;;;;;5075716;28;20107;-77
2021/06/21 06:31:28;;;;;;;0.80;0.80;;;14.30;91.00;;;;;;5076040;28;20082;-76
2021/06/21 06:33:54;;;;;;;0.90;0.90;;;14.30;91.10;;;;;;5075596;28;20012;-78
2021/06/21 06:36:20;;;;;;;0.80;0.80;;;14.30;91.00;;;;;;5074588;28;20513;-78
2021/06/21 06:38:45;;;;;;;0.73;0.73;;;14.30;91.00;;;;;;5074908;28;20017;-76
2021/06/21 06:41:11;;;;;;;0.90;0.90;;;14.30;91.10;;;;;;5074240;28;20434;-76
2021/06/21 06:43:36;;;;;;;0.88;0.88;;;14.30;91.10;;;;;;5074125;28;20032;-77
2021/06/21 06:46:02;;;;;;;0.80;0.80;;;14.30;91.10;;;;;;5073869;28;20025;-76
2021/06/21 06:48:28;;;;;;;0.80;0.80;;;14.30;91.10;;;;;;5075009;28;20167;-76
2021/06/21 06:50:53;;;;;;;0.80;0.80;;;14.40;91.10;;;;;;5073796;28;20020;-77
2021/06/21 06:53:27;;;;;;;0.60;0.60;;;14.40;91.20;;;;;;5073847;28;20020;-74
2021/06/21 06:58:36;;;;;;;0.80;0.80;;;14.40;91.10;;;;;;5075622;28;20515;-77
2021/06/21 07:01:02;;;;;;;0.70;0.70;;;14.30;91.10;;;;;;5074758;28;20404;-82
2021/06/21 07:03:28;;;;;;;0.70;0.65;;;14.40;91.10;;;;;;5075576;28;20472;-75
2021/06/21 07:05:54;;;;;;;1.02;0.75;;;14.40;91.10;;;;;;5077202;28;20033;-79
2021/06/21 07:08:19;;;;;;;0.82;0.82;;;14.40;91.20;;;;;;5079521;28;20179;-78
2021/06/21 07:10:45;;;;;;;0.80;0.80;;;14.40;91.20;;;;;;5076724;28;20441;-84
2021/06/21 07:13:11;;;;;;;0.60;0.60;;;14.40;91.20;;;;;;5077832;28;20039;-78
2021/06/21 07:15:36;;;;;;;0.80;0.80;;;14.40;91.20;;;;;;5073474;28;20033;-83
2021/06/21 07:18:02;;;;;;;0.52;0.52;;;14.40;91.20;;;;;;5075926;28;20448;-85
2021/06/21 07:20:27;;;;;;;0.70;0.70;;;14.40;91.20;;;;;;5076246;28;20063;-83
2021/06/21 07:22:53;;;;;;;0.70;0.70;;;14.50;91.20;;;;;;5074498;28;20111;-81
2021/06/21 07:25:19;;;;;;;0.70;0.70;;;14.50;91.20;;;;;;5074470;28;20028;-79
2021/06/21 07:27:44;;;;;;;0.80;0.80;;;14.50;91.10;;;;;;5075319;28;20055;-76
2021/06/21 07:30:10;;;;;;;1.00;0.80;;;14.50;91.10;;;;;;5073547;28;20108;-77
2021/06/21 07:32:36;;;;;;;0.80;0.80;;;14.50;91.10;;;;;;5073311;28;20025;-73
2021/06/21 07:35:02;;;;;;;0.70;0.70;;;14.60;91.10;;;;;;5073203;28;20012;-74
2021/06/21 07:37:28;;;;;;;1.38;0.70;;;14.60;91.10;;;;;;5074491;28;20021;-76
2021/06/21 07:39:53;;;;;;;0.77;0.77;;;14.60;91.00;;;;;;5074404;28;20388;-77
2021/06/21 07:42:19;;;;;;;2.08;0.90;;;14.60;91.00;;;;;;5073031;28;20088;-77
2021/06/21 07:44:46;;;;;;;0.93;0.93;;;14.60;91.00;;;;;;5073059;28;20378;-75
2021/06/21 07:47:11;;;;;;;0.80;0.80;;;14.60;91.10;;;;;;5072685;28;20430;-75
2021/06/21 07:49:37;;;;;;;0.70;0.70;;;14.60;91.20;;;;;;5072677;28;20037;-75
2021/06/21 07:52:03;;;;;;;0.75;0.75;;;14.70;91.20;;;;;;5073066;28;20384;-72
2021/06/21 07:54:28;;;;;;;0.98;0.90;;;14.70;91.40;;;;;;5074097;28;20035;-74
2021/06/21 07:56:54;;;;;;;0.70;0.70;;;14.70;91.10;;;;;;5072757;28;20025;-72
2021/06/21 07:59:19;;;;;;;1.02;0.93;;;14.70;91.10;;;;;;5073878;28;20481;-73
2021/06/21 08:01:45;;;;;;;1.00;0.90;;;14.80;91.10;;;;;;5073785;28;20059;-74
2021/06/21 08:04:12;;;;;;;0.70;0.70;;;14.80;91.10;;;;;;5073916;28;20118;-74
2021/06/21 08:06:38;;;;;;;0.90;0.90;;;14.80;91.00;;;;;;5073727;28;20040;-76
2021/06/21 08:09:04;;;;;;;0.75;0.75;;;14.90;91.00;;;;;;5072375;28;20396;-74
2021/06/21 08:11:29;;;;;;;0.70;0.70;;;14.90;91.00;;;;;;5072567;28;20507;-80
2021/06/21 08:13:55;;;;;;;1.25;0.82;;;14.90;91.00;;;;;;5072333;28;20020;-77
2021/06/21 08:16:21;;;;;;;0.63;0.63;;;14.90;91.00;;;;;;5073631;28;20506;-74
2021/06/21 08:18:46;;;;;;;0.70;0.70;;;15.00;90.90;;;;;;5072294;28;20036;-76
2021/06/21 08:21:12;;;;;;;0.70;0.70;;;15.00;90.90;;;;;;5073677;28;20037;-76
2021/06/21 08:23:37;;;;;;;1.05;0.93;;;14.90;90.90;;;;;;5073531;28;20025;-75
2021/06/21 08:26:04;;;;;;;0.77;0.77;;;14.90;90.90;;;;;;5072162;28;20108;-77
2021/06/21 08:28:29;;;;;;;1.40;1.20;;;14.90;90.90;;;;;;5073577;28;20484;-77
2021/06/21 08:30:55;;;;;;;0.98;0.90;;;14.90;90.90;;;;;;5071977;28;20039;-77
2021/06/21 08:33:21;;;;;;;1.45;1.13;;;14.90;90.90;;;;;;5072130;28;20021;-78
2021/06/21 08:35:47;;;;;;;1.00;0.98;;;14.90;90.90;;;;;;5072046;28;20028;-77
2021/06/21 08:38:12;;;;;;;1.27;1.20;;;14.90;90.90;;;;;;5072055;28;20162;-78
2021/06/21 08:40:38;;;;;;;1.08;1.02;;;14.90;90.90;;;;;;5072122;28;20063;-79
2021/06/21 08:43:04;;;;;;;1.30;1.20;;;14.90;91.00;;;;;;5071192;28;20037;-77
2021/06/21 08:45:32;;;;;;;1.00;1.00;;;15.00;91.00;;;;;;5072747;28;20032;-79
2021/06/21 08:47:58;;;;;;;1.17;1.00;;;15.00;90.90;;;;;;5073639;28;20032;-75
2021/06/21 08:50:24;;;;;;;1.30;0.85;;;14.90;90.90;;;;;;5073090;28;20127;-80
2021/06/21 08:52:51;;;;;;;1.00;1.00;;;14.90;90.90;;;;;;5071860;28;20033;-78
2021/06/21 08:55:17;;;;;;;1.20;1.10;;;14.90;90.90;;;;;;5071901;28;20025;-80
2021/06/21 08:57:48;;;;;;;2.00;1.08;;;14.90;90.90;;;;;;5072185;28;20031;-79
2021/06/21 09:00:15;;;;;;;0.98;0.98;;;14.90;91.00;;;;;;5073555;28;20094;-79
2021/06/21 09:02:41;;;;;;;1.65;1.00;;;14.90;91.00;;;;;;5072398;28;20506;-79
2021/06/21 09:05:11;;;;;;;0.80;0.80;;;14.90;90.90;;;;;;5072239;28;20028;-78
2021/06/21 09:07:37;;;;;;;2.05;1.00;;;14.90;90.90;;;;;;5071557;28;20035;-79
2021/06/21 09:10:11;;;;;;;0.80;0.80;;;14.90;90.90;;;;;;5073083;28;20099;-80
2021/06/21 09:12:36;;;;;;;;;;;14.90;90.90;;;;;;5072339;28;20017;-81
2021/06/21 09:15:09;;;;;;;1.35;1.08;;;14.90;90.90;;;;;;5078979;28;20281;-83
2021/06/21 09:17:39;;;;;;;0.88;0.88;;;14.80;90.90;;;;;;5073001;28;20086;-83
2021/06/21 09:20:07;;;;;;;2.05;0.80;;;14.80;90.90;;;;;;5076821;28;20341;-87
2021/06/21 09:22:38;;;;;;;1.13;1.00;;;14.80;90.90;;;;;;5073835;28;20033;-80
2021/06/21 09:25:20;;;;;;;3.97;2.95;;;14.80;90.90;;;;;;5073558;28;20113;-80
2021/06/21 09:28:03;;;;;;;1.70;1.50;;;14.80;91.00;;;;;;5072574;28;20036;-77
2021/06/21 09:30:31;;;;;;;1.45;1.33;;;14.80;91.00;;;;;;5073251;28;20025;-79
2021/06/21 09:32:59;;;;;;;1.23;1.13;;;14.80;91.00;;;;;;5071849;28;20033;-78
2021/06/21 09:35:27;;;;;;;0.98;0.98;;;14.80;91.10;;;;;;5071180;28;20059;-78
2021/06/21 09:37:54;;;;;;;1.25;1.15;;;14.80;91.10;;;;;;5072905;28;20024;-78
2021/06/21 09:40:30;;;;;;;1.08;0.90;;;14.80;91.10;;;;;;5072790;28;20111;-77
2021/06/21 09:42:56;;;;;;;2.17;0.90;;;14.80;91.10;;;;;;5071874;28;20029;-78
2021/06/21 09:45:22;;;;;;;1.08;1.00;;;14.90;91.10;;;;;;5072977;28;20044;-76
2021/06/21 09:47:48;;;;;;;1.17;0.98;;;14.90;91.10;;;;;;5071655;28;20028;-76
2021/06/21 09:50:21;;;;;;;0.90;0.90;;;14.90;91.10;;;;;;5072904;28;20044;-76
2021/06/21 09:52:57;;;;;;;1.30;0.80;;;14.90;91.00;;;;;;5071560;28;20063;-77
2021/06/21 09:55:31;;;;;;;0.55;0.55;;;14.90;91.00;;;;;;5077725;28;20527;-76
2021/06/21 09:58:05;;;;;;;0.82;0.80;;;14.90;91.00;;;;;;5075300;28;20029;-77
2021/06/21 10:00:31;;;;;;;0.70;0.70;;;14.90;91.10;;;;;;5074852;28;20064;-75
2021/06/21 10:03:05;;;;;;;1.10;1.00;;;14.90;91.00;;;;;;5074649;28;20078;-73
2021/06/21 10:05:31;;;;;;;0.77;0.70;;;15.00;91.00;;;;;;5074478;28;20055;-75
2021/06/21 10:07:57;;;;;;;0.77;0.77;;;15.10;91.00;;;;;;5074536;28;20123;-75
2021/06/21 10:10:23;;;;;;;0.85;0.80;;;15.10;91.00;;;;;;5074738;28;20360;-74
2021/06/21 10:12:49;;;;;;;0.80;0.80;;;15.20;91.00;;;;;;5074678;28;20032;-74
2021/06/21 10:15:16;;;;;;;1.42;0.90;;;15.30;90.90;;;;;;5074324;28;20085;-75
2021/06/21 10:21:04;;;;;;;0.70;0.70;;;15.40;90.80;;;;;;5076345;28;20131;-79
2021/06/21 10:23:30;;;;;;;0.68;0.68;;;15.40;90.70;;;;;;5075827;28;20044;-75
2021/06/21 10:25:55;;;;;;;0.60;0.60;;;15.50;90.80;;;;;;5075843;28;20032;-75
2021/06/21 10:28:21;;;;;;;1.48;0.60;;;15.50;90.80;;;;;;5074564;28;20025;-76
2021/06/21 10:30:48;;;;;;;0.60;0.60;;;15.50;90.70;;;;;;5075955;28;20055;-75
2021/06/21 10:33:14;;;;;;;0.52;0.50;;;15.60;90.70;;;;;;5074553;28;20032;-75
2021/06/21 10:35:40;;;;;;;0.47;0.47;;;15.60;90.70;;;;;;5076195;28;20538;-75
2021/06/21 10:38:06;;;;;;;0.50;0.50;;;15.60;90.60;;;;;;5076159;28;20028;-76
2021/06/21 10:40:56;;;;;;;0.50;0.50;;;15.70;90.60;;;;;;5075587;28;20384;-75
2021/06/21 10:43:40;;;;;;;0.43;0.43;;;15.70;90.60;;;;;;5074753;28;20021;-74
2021/06/21 10:46:20;;;;;;;0.55;0.40;;;15.70;90.50;;;;;;5074814;28;20075;-75
2021/06/21 10:48:58;;;;;;;0.70;0.40;;;15.70;90.50;;;;;;5074818;28;20400;-76
2021/06/21 10:51:32;;;;;;;0.68;0.65;;;15.70;90.50;;;;;;5076018;28;20029;-78
2021/06/21 10:53:58;;;;;;;0.47;0.47;;;15.70;90.50;;;;;;5075870;28;20032;-77
2021/06/21 10:56:54;;;;;;;2.22;0.70;;;15.70;90.40;;;;;;5077059;28;20020;-76
2021/06/21 10:59:22;;;;;;;0.50;0.50;;;15.60;90.50;;;;;;5075431;28;20547;-76
2021/06/21 11:01:54;;;;;;;0.60;0.60;;;15.60;90.50;;;;;;5075764;28;20017;-78
2021/06/21 11:04:31;;;;;;;0.63;0.60;;;15.50;90.50;;;;;;5076403;28;20166;-77
2021/06/21 11:07:17;;;;;;;0.60;0.60;;;15.50;90.60;;;;;;5074960;28;20028;-76
2021/06/21 11:09:55;;;;;;;0.40;0.40;;;15.50;90.60;;;;;;5075157;28;20439;-74
2021/06/21 11:12:21;;;;;;;0.50;0.50;;;15.50;90.50;;;;;;5074803;28;20025;-75
2021/06/21 11:15:07;;;;;;;0.47;0.47;;;15.60;90.60;;;;;;5075163;28;20078;-75
2021/06/21 11:17:56;;;;;;;0.98;0.60;;;15.60;90.60;;;;;;5076076;28;20420;-74
2021/06/21 11:20:44;;;;;;;0.65;0.65;;;15.70;90.50;;;;;;5075012;28;20027;-82
2021/06/21 11:23:40;;;;;;;0.70;0.70;;;15.90;90.40;;;;;;5073142;28;20037;-84
2021/06/21 11:26:06;;;;;;;0.80;0.80;;;15.90;90.30;;;;;;5065270;28;20058;-83
2021/06/21 11:28:39;;;;;;;0.50;0.50;;;16.10;90.20;;;;;;5075475;28;20024;-82
2021/06/21 11:31:25;;;;;;;1.10;0.50;;;16.10;90.00;;;;;;5074833;28;20499;-81
2021/06/21 11:34:03;;;;;;;1.02;0.80;;;16.20;89.70;;;;;;5074742;28;20059;-79
2021/06/21 11:36:45;;;;;;;0.93;0.73;;;16.30;89.70;;;;;;5076053;28;20396;-78
2021/06/21 11:39:18;;;;;;;0.60;0.60;;;16.30;89.70;;;;;;5075678;28;20105;-79
2021/06/21 11:42:03;;;;;;;0.60;0.60;;;16.40;89.30;;;;;;5074507;28;20484;-77
2021/06/21 11:44:40;;;;;;;0.70;0.70;;;16.40;89.10;;;;;;5074319;28;20024;-77
2021/06/21 11:47:25;;;;;;;0.50;0.50;;;16.50;88.80;;;;;;5076070;28;20017;-77
2021/06/21 11:49:54;;;;;;;0.60;0.60;;;16.50;88.70;;;;;;5074434;28;20128;-77
2021/06/21 11:52:21;;;;;;;0.68;0.68;;;16.50;88.70;;;;;;5075153;28;20020;-78
2021/06/21 11:54:49;;;;;;;0.77;0.70;;;16.50;88.80;;;;;;5076479;28;20045;-79
2021/06/21 11:57:16;;;;;;;0.95;0.80;;;16.50;88.60;;;;;;5075570;28;20013;-76
2021/06/21 11:59:44;;;;;;;0.60;0.60;;;16.50;88.70;;;;;;5073889;28;20055;-76
2021/06/21 12:02:12;;;;;;;0.80;0.57;;;16.50;88.60;;;;;;5074054;28;20480;-76
2021/06/21 12:04:39;;;;;;;0.70;0.70;;;16.50;88.60;;;;;;5073767;28;20021;-76
2021/06/21 12:07:05;;;;;;;0.70;0.70;;;16.50;88.50;;;;;;5073966;28;20081;-76
2021/06/21 12:09:38;;;;;;;0.68;0.68;;;16.50;88.20;;;;;;5074081;28;20031;-76
2021/06/21 12:12:04;;;;;;;0.70;0.63;;;16.50;88.00;;;;;;5073855;28;20016;-76
2021/06/21 12:14:30;;;;;;;0.98;0.65;;;16.50;88.10;;;;;;5073863;28;20020;-76
2021/06/21 12:17:05;;;;;;;1.10;0.82;;;16.50;88.00;;;;;;5073021;28;20044;-75
2021/06/21 12:19:31;;;;;;;0.70;0.70;;;16.60;87.90;;;;;;5074063;28;20141;-75
2021/06/21 12:21:57;;;;;;;1.67;0.93;;;16.60;87.90;;;;;;5074091;28;20025;-75
2021/06/21 12:24:25;;;;;;;1.08;1.00;;;16.70;87.90;;;;;;5074030;28;20126;-75
2021/06/21 12:26:55;;;;;;;0.75;0.70;;;16.70;87.50;;;;;;5072357;28;20024;-75
2021/06/21 12:29:22;;;;;;;0.80;0.80;;;16.80;87.60;;;;;;5072022;28;20020;-75
2021/06/21 12:31:52;;;;;;;0.80;0.80;;;16.80;87.50;;;;;;5073558;28;20016;-75
2021/06/21 12:34:18;;;;;;;1.15;0.75;;;16.90;87.30;;;;;;5072080;28;20066;-74
2021/06/21 12:36:43;;;;;;;0.90;0.77;;;17.00;87.10;;;;;;5072033;28;20027;-75
2021/06/21 12:39:09;;;;;;;0.77;0.77;;;17.10;87.00;;;;;;5073272;28;20031;-75
2021/06/21 12:41:39;;;;;;;0.77;0.70;;;17.20;86.40;;;;;;5071936;28;20013;-75
2021/06/21 12:44:09;;;;;;;0.65;0.63;;;17.20;86.10;;;;;;5071980;28;20021;-75
2021/06/21 12:50:05;;;;;;;1.13;0.85;;;17.10;86.00;;;;;;5071305;28;20206;-76
2021/06/21 12:52:32;;;;;;;1.08;0.88;;;17.00;86.20;;;;;;5072671;28;20507;-76
2021/06/21 12:55:06;;;;;;;0.90;0.90;;;16.90;86.30;;;;;;5072025;28;20031;-76
2021/06/21 12:58:03;;;;;;;1.15;1.00;;;16.70;86.40;;;;;;5072124;28;20040;-77
2021/06/21 13:00:49;;;;;;;1.95;0.90;;;16.60;85.70;;;;;;5071867;28;20388;-78
2021/06/21 13:03:19;;;;;;;1.02;0.80;;;16.50;86.10;;;;;;5071926;28;20025;-77
2021/06/21 13:05:46;;;;;;;0.80;0.80;;;16.50;86.40;;;;;;5071928;28;20020;-77
2021/06/21 13:08:14;;;;;;;0.95;0.80;;;16.50;86.50;;;;;;5072606;28;20464;-76
2021/06/21 13:10:40;;;;;;;0.60;0.60;;;16.60;86.40;;;;;;5072079;28;20132;-77
2021/06/21 13:13:06;;;;;;;0.70;0.70;;;16.70;86.20;;;;;;5071595;28;20500;-76
2021/06/21 13:15:40;;;;;;;0.88;0.80;;;16.80;86.20;;;;;;5071779;28;20162;-75